Date,TemperatureHighF,TemperatureAvgF,TemperatureLowF,DewpointHighF,DewpointAvgF,DewpointLowF,HumidityHigh,HumidityAvg,HumidityLow,PressureMaxIn,PressureMinIn,WindSpeedMaxMPH,WindSpeedAvgMPH,GustSpeedMaxMPH,PrecipitationSumIn
2013-5-1,66.1,55.2,45.4,38.9,28.1,19.4,59,36,23,30.39,30.24,7,4,20,0.00
2013-5-2,79.0,42.5,47.9,42.2,-0.6,-99.9,74,38,27,30.39,30.20,7,2,16,0.00
2013-5-3,62.9,54.9,45.7,39.8,33.7,29.0,61,46,28,30.36,30.26,14,8,25,0.00
2013-5-4,67.6,55.2,43.5,42.9,39.9,33.9,90,60,29,30.29,30.12,8,4,21,0.00
2013-5-5,64.5,49.3,36.9,41.1,36.2,29.7,96,66,27,30.22,30.11,9,4,18,0.00
2013-5-6,69.9,53.1,37.9,51.2,43.8,36.9,98,74,41,30.19,30.06,5,3,13,0.00
2013-5-7,71.8,61.0,50.1,54.1,48.7,44.8,86,66,38,30.09,30.00,6,3,16,0.00
2013-5-8,61.3,57.8,55.4,60.3,56.1,53.4,98,94,89,30.05,29.92,10,7,28,0.29
2013-5-9,62.3,54.9,50.8,58.7,53.3,50.0,98,94,76,29.94,29.81,7,4,14,0.40
2013-5-10,78.3,65.8,52.9,56.6,52.8,50.1,94,66,40,29.89,29.82,7,4,18,0.00
2013-5-11,63.5,58.3,58.0,61.1,51.5,-99.9,96,87,76,29.80,29.62,9,6,26,0.72
2013-5-12,65.3,54.2,46.5,58.1,37.1,-99.9,96,62,29,29.76,29.56,16,7,27,0.00
2013-5-13,51.7,44.5,37.2,32.6,28.4,26.2,73,54,40,30.00,29.78,12,8,25,0.00
2013-5-14,59.0,39.3,34.7,32.6,0.6,-99.9,82,35,26,30.03,29.91,7,4,18,0.00
2013-5-15,63.5,52.0,43.2,51.0,37.8,25.0,86,59,45,29.98,29.60,8,4,24,0.04
2013-5-16,78.6,67.5,55.0,53.5,44.4,35.1,88,50,22,29.71,29.62,15,7,30,0.00
2013-5-17,65.8,58.4,50.2,40.9,38.3,33.7,66,48,37,30.11,29.72,8,4,24,0.00
2013-5-18,69.3,58.7,48.5,47.0,40.5,33.2,81,52,38,30.21,30.11,11,4,22,0.00
2013-5-19,53.5,52.9,51.6,52.7,50.9,47.8,97,93,84,30.25,30.13,6,4,16,0.09
2013-5-20,80.7,65.2,53.5,64.2,58.8,52.4,98,82,54,30.11,29.87,8,4,18,0.00
2013-5-21,88.6,75.3,64.5,68.0,65.0,61.7,93,72,48,29.88,29.72,10,5,19,0.00
2013-5-22,79.6,67.3,56.2,68.1,63.4,55.4,98,88,68,29.82,29.73,11,5,25,0.47
2013-5-23,69.4,66.0,62.6,67.0,64.3,61.4,97,94,89,29.78,29.69,9,5,19,1.65
2013-5-24,63.1,53.0,40.6,62.0,51.5,39.3,97,95,82,29.83,29.57,10,6,28,0.26
2013-5-25,44.2,41.3,39.1,41.7,38.5,35.0,96,90,73,29.87,29.80,14,11,41,0.47
2013-5-26,57.3,48.7,41.1,40.6,36.7,33.2,83,64,47,30.07,29.81,16,9,37,0.00
2013-5-27,72.5,55.7,44.1,41.9,19.3,-99.9,66,39,25,30.14,30.03,10,6,19,0.00
2013-5-28,67.6,51.3,51.0,53.6,30.7,-99.9,97,59,39,30.13,30.05,5,3,13,0.09
2013-5-29,78.1,61.9,54.1,67.9,53.6,-99.9,98,84,66,30.06,29.91,9,5,17,0.00
2013-5-30,89.7,66.8,64.5,68.5,43.3,-99.9,94,59,45,30.03,29.95,11,4,21,0.00
2013-5-31,94.0,57.5,70.3,65.4,15.1,-99.9,72,39,32,30.01,29.88,9,4,18,0.00